sensor_id;sensor_type;location;lat;lon;timestamp;P1;durP1;ratioP1;P2;durP2;ratioP2
35312;SDS011;21425;50.454;30.466;2023-07-31T00:02:15;7.32;;;3.63;;
35312;SDS011;21425;50.454;30.466;2023-07-31T00:04:40;5.10;;;4.13;;
35312;SDS011;21425;50.454;30.466;2023-07-31T00:07:06;6.30;;;4.50;;
35312;SDS011;21425;50.454;30.466;2023-07-31T00:09:33;6.78;;;4.35;;
35312;SDS011;21425;50.454;30.466;2023-07-31T00:11:58;5.05;;;4.18;;
35312;SDS011;21425;50.454;30.466;2023-07-31T00:14:24;5.75;;;4.40;;
35312;SDS011;21425;50.454;30.466;2023-07-31T00:16:51;4.90;;;3.83;;
35312;SDS011;21425;50.454;30.466;2023-07-31T00:19:16;7.20;;;4.50;;
35312;SDS011;21425;50.454;30.466;2023-07-31T00:21:43;5.97;;;4.78;;
35312;SDS011;21425;50.454;30.466;2023-07-31T00:24:09;5.80;;;4.55;;
35312;SDS011;21425;50.454;30.466;2023-07-31T00:26:34;9.18;;;5.38;;
35312;SDS011;21425;50.454;30.466;2023-07-31T00:29:00;7.60;;;4.93;;
35312;SDS011;21425;50.454;30.466;2023-07-31T00:31:26;7.55;;;5.88;;
35312;SDS011;21425;50.454;30.466;2023-07-31T00:33:52;7.30;;;6.20;;
35312;SDS011;21425;50.454;30.466;2023-07-31T00:36:18;8.15;;;5.72;;
35312;SDS011;21425;50.454;30.466;2023-07-31T00:38:44;7.20;;;6.03;;
35312;SDS011;21425;50.454;30.466;2023-07-31T00:41:10;7.65;;;6.43;;
35312;SDS011;21425;50.454;30.466;2023-07-31T00:43:35;8.10;;;5.78;;
35312;SDS011;21425;50.454;30.466;2023-07-31T00:46:01;10.48;;;5.30;;
35312;SDS011;21425;50.454;30.466;2023-07-31T00:48:26;7.10;;;6.40;;
35312;SDS011;21425;50.454;30.466;2023-07-31T00:50:53;8.13;;;6.85;;
35312;SDS011;21425;50.454;30.466;2023-07-31T00:53:19;7.13;;;6.15;;
35312;SDS011;21425;50.454;30.466;2023-07-31T00:55:45;8.10;;;6.60;;
35312;SDS011;21425;50.454;30.466;2023-07-31T00:58:10;7.50;;;6.68;;
35312;SDS011;21425;50.454;30.466;2023-07-31T01:00:36;9.00;;;6.45;;
35312;SDS011;21425;50.454;30.466;2023-07-31T01:03:02;7.25;;;6.32;;
35312;SDS011;21425;50.454;30.466;2023-07-31T01:05:53;10.23;;;7.85;;
35312;SDS011;21425;50.454;30.466;2023-07-31T01:11:12;7.25;;;6.35;;
35312;SDS011;21425;50.454;30.466;2023-07-31T01:13:42;8.10;;;6.95;;
35312;SDS011;21425;50.454;30.466;2023-07-31T01:16:10;11.38;;;7.05;;
35312;SDS011;21425;50.454;30.466;2023-07-31T01:18:35;9.45;;;6.90;;
35312;SDS011;21425;50.454;30.466;2023-07-31T01:26:45;11.23;;;8.35;;
35312;SDS011;21425;50.454;30.466;2023-07-31T01:31:44;8.90;;;7.60;;
35312;SDS011;21425;50.454;30.466;2023-07-31T01:34:13;9.90;;;8.60;;
35312;SDS011;21425;50.454;30.466;2023-07-31T01:36:41;14.38;;;9.50;;
35312;SDS011;21425;50.454;30.466;2023-07-31T01:39:07;11.60;;;8.65;;
35312;SDS011;21425;50.454;30.466;2023-07-31T01:41:33;11.63;;;9.13;;
35312;SDS011;21425;50.454;30.466;2023-07-31T01:43:59;11.75;;;9.82;;
35312;SDS011;21425;50.454;30.466;2023-07-31T01:46:25;14.55;;;10.00;;
35312;SDS011;21425;50.454;30.466;2023-07-31T01:48:51;12.93;;;9.35;;
35312;SDS011;21425;50.454;30.466;2023-07-31T01:51:16;13.70;;;10.98;;
35312;SDS011;21425;50.454;30.466;2023-07-31T01:53:42;12.65;;;10.55;;
35312;SDS011;21425;50.454;30.466;2023-07-31T01:56:08;15.35;;;10.85;;
35312;SDS011;21425;50.454;30.466;2023-07-31T01:58:33;12.02;;;10.13;;
35312;SDS011;21425;50.454;30.466;2023-07-31T02:00:59;13.57;;;10.75;;
35312;SDS011;21425;50.454;30.466;2023-07-31T02:03:25;15.02;;;11.98;;
35312;SDS011;21425;50.454;30.466;2023-07-31T02:05:50;16.55;;;12.77;;
35312;SDS011;21425;50.454;30.466;2023-07-31T02:08:16;18.23;;;11.57;;
35312;SDS011;21425;50.454;30.466;2023-07-31T02:10:42;17.55;;;12.50;;
35312;SDS011;21425;50.454;30.466;2023-07-31T02:13:09;13.90;;;10.77;;
35312;SDS011;21425;50.454;30.466;2023-07-31T02:15:34;15.52;;;10.95;;
35312;SDS011;21425;50.454;30.466;2023-07-31T02:18:00;14.73;;;11.32;;
35312;SDS011;21425;50.454;30.466;2023-07-31T02:20:26;15.52;;;11.70;;
35312;SDS011;21425;50.454;30.466;2023-07-31T02:22:51;15.68;;;12.60;;
35312;SDS011;21425;50.454;30.466;2023-07-31T02:25:17;21.15;;;12.77;;
35312;SDS011;21425;50.454;30.466;2023-07-31T02:27:43;20.75;;;13.98;;
35312;SDS011;21425;50.454;30.466;2023-07-31T02:30:09;21.05;;;13.77;;
35312;SDS011;21425;50.454;30.466;2023-07-31T02:32:35;24.00;;;15.95;;
35312;SDS011;21425;50.454;30.466;2023-07-31T02:35:00;22.08;;;15.27;;
35312;SDS011;21425;50.454;30.466;2023-07-31T02:37:26;41.75;;;17.20;;
35312;SDS011;21425;50.454;30.466;2023-07-31T02:39:53;25.85;;;15.63;;
35312;SDS011;21425;50.454;30.466;2023-07-31T02:42:19;51.22;;;16.80;;
35312;SDS011;21425;50.454;30.466;2023-07-31T02:44:45;31.48;;;15.68;;
35312;SDS011;21425;50.454;30.466;2023-07-31T02:47:11;38.50;;;16.73;;
35312;SDS011;21425;50.454;30.466;2023-07-31T02:49:37;42.45;;;17.42;;
35312;SDS011;21425;50.454;30.466;2023-07-31T02:52:03;26.27;;;17.10;;
35312;SDS011;21425;50.454;30.466;2023-07-31T02:54:29;25.85;;;15.43;;
35312;SDS011;21425;50.454;30.466;2023-07-31T02:56:54;78.57;;;18.92;;
35312;SDS011;21425;50.454;30.466;2023-07-31T02:59:20;131.05;;;18.45;;
35312;SDS011;21425;50.454;30.466;2023-07-31T03:01:46;149.27;;;20.98;;
35312;SDS011;21425;50.454;30.466;2023-07-31T03:04:11;204.65;;;23.00;;
35312;SDS011;21425;50.454;30.466;2023-07-31T03:06:37;124.15;;;16.75;;
35312;SDS011;21425;50.454;30.466;2023-07-31T03:09:03;44.78;;;14.52;;
35312;SDS011;21425;50.454;30.466;2023-07-31T03:11:29;106.80;;;15.45;;
35312;SDS011;21425;50.454;30.466;2023-07-31T03:13:54;24.48;;;11.55;;
35312;SDS011;21425;50.454;30.466;2023-07-31T03:16:20;101.03;;;16.25;;
35312;SDS011;21425;50.454;30.466;2023-07-31T03:18:46;82.43;;;16.02;;
35312;SDS011;21425;50.454;30.466;2023-07-31T03:21:12;216.95;;;23.35;;
35312;SDS011;21425;50.454;30.466;2023-07-31T03:23:39;100.65;;;13.55;;
35312;SDS011;21425;50.454;30.466;2023-07-31T03:26:06;151.27;;;16.02;;
35312;SDS011;21425;50.454;30.466;2023-07-31T03:28:32;85.28;;;13.40;;
35312;SDS011;21425;50.454;30.466;2023-07-31T03:30:58;66.97;;;13.20;;
35312;SDS011;21425;50.454;30.466;2023-07-31T03:33:24;77.03;;;12.98;;
35312;SDS011;21425;50.454;30.466;2023-07-31T03:35:50;63.58;;;12.70;;
35312;SDS011;21425;50.454;30.466;2023-07-31T03:38:16;67.57;;;12.10;;
35312;SDS011;21425;50.454;30.466;2023-07-31T03:40:42;96.30;;;12.93;;
35312;SDS011;21425;50.454;30.466;2023-07-31T03:43:08;34.92;;;9.93;;
35312;SDS011;21425;50.454;30.466;2023-07-31T03:45:33;74.50;;;13.40;;
35312;SDS011;21425;50.454;30.466;2023-07-31T03:47:59;76.65;;;11.15;;
35312;SDS011;21425;50.454;30.466;2023-07-31T03:50:25;178.27;;;17.95;;
35312;SDS011;21425;50.454;30.466;2023-07-31T03:52:50;46.40;;;11.18;;
35312;SDS011;21425;50.454;30.466;2023-07-31T03:55:16;80.90;;;11.75;;
35312;SDS011;21425;50.454;30.466;2023-07-31T03:57:43;74.60;;;12.68;;
35312;SDS011;21425;50.454;30.466;2023-07-31T04:00:08;13.65;;;9.60;;
35312;SDS011;21425;50.454;30.466;2023-07-31T04:02:34;32.80;;;9.85;;
35312;SDS011;21425;50.454;30.466;2023-07-31T04:05:00;36.00;;;10.45;;
35312;SDS011;21425;50.454;30.466;2023-07-31T04:07:26;79.28;;;11.27;;
35312;SDS011;21425;50.454;30.466;2023-07-31T04:09:52;36.03;;;10.93;;
35312;SDS011;21425;50.454;30.466;2023-07-31T04:12:17;91.35;;;12.45;;
35312;SDS011;21425;50.454;30.466;2023-07-31T04:14:43;91.75;;;11.63;;
35312;SDS011;21425;50.454;30.466;2023-07-31T04:17:09;85.93;;;13.73;;
35312;SDS011;21425;50.454;30.466;2023-07-31T04:19:34;59.90;;;12.50;;
35312;SDS011;21425;50.454;30.466;2023-07-31T04:22:00;63.55;;;14.77;;
35312;SDS011;21425;50.454;30.466;2023-07-31T04:24:26;30.52;;;10.95;;
35312;SDS011;21425;50.454;30.466;2023-07-31T04:26:52;37.90;;;11.13;;
35312;SDS011;21425;50.454;30.466;2023-07-31T04:29:18;18.88;;;10.63;;
35312;SDS011;21425;50.454;30.466;2023-07-31T04:31:44;14.02;;;9.30;;
35312;SDS011;21425;50.454;30.466;2023-07-31T04:34:10;15.32;;;8.98;;
35312;SDS011;21425;50.454;30.466;2023-07-31T04:36:39;13.48;;;9.07;;
35312;SDS011;21425;50.454;30.466;2023-07-31T04:39:04;11.75;;;7.15;;
35312;SDS011;21425;50.454;30.466;2023-07-31T04:41:30;10.20;;;7.32;;
35312;SDS011;21425;50.454;30.466;2023-07-31T04:43:56;8.70;;;7.53;;
35312;SDS011;21425;50.454;30.466;2023-07-31T04:46:21;9.98;;;7.50;;
35312;SDS011;21425;50.454;30.466;2023-07-31T04:48:47;8.68;;;6.72;;
35312;SDS011;21425;50.454;30.466;2023-07-31T04:51:13;9.48;;;5.88;;
35312;SDS011;21425;50.454;30.466;2023-07-31T04:53:38;6.97;;;5.43;;
35312;SDS011;21425;50.454;30.466;2023-07-31T04:56:04;8.35;;;6.65;;
35312;SDS011;21425;50.454;30.466;2023-07-31T04:58:29;7.05;;;5.88;;
35312;SDS011;21425;50.454;30.466;2023-07-31T05:00:55;6.82;;;5.85;;
35312;SDS011;21425;50.454;30.466;2023-07-31T05:03:21;8.35;;;5.65;;
35312;SDS011;21425;50.454;30.466;2023-07-31T05:05:47;7.13;;;5.63;;
35312;SDS011;21425;50.454;30.466;2023-07-31T05:08:12;6.35;;;4.65;;
35312;SDS011;21425;50.454;30.466;2023-07-31T05:10:38;7.32;;;4.82;;
35312;SDS011;21425;50.454;30.466;2023-07-31T05:13:04;6.70;;;5.05;;
35312;SDS011;21425;50.454;30.466;2023-07-31T05:15:30;7.10;;;5.30;;
35312;SDS011;21425;50.454;30.466;2023-07-31T05:17:56;10.32;;;5.40;;
35312;SDS011;21425;50.454;30.466;2023-07-31T05:20:22;10.07;;;5.80;;
35312;SDS011;21425;50.454;30.466;2023-07-31T05:22:47;8.10;;;5.93;;
35312;SDS011;21425;50.454;30.466;2023-07-31T05:25:13;9.77;;;6.07;;
35312;SDS011;21425;50.454;30.466;2023-07-31T05:27:38;8.15;;;6.32;;
35312;SDS011;21425;50.454;30.466;2023-07-31T05:30:04;7.68;;;5.97;;
35312;SDS011;21425;50.454;30.466;2023-07-31T05:32:30;7.97;;;6.50;;
35312;SDS011;21425;50.454;30.466;2023-07-31T05:34:56;9.27;;;7.45;;
35312;SDS011;21425;50.454;30.466;2023-07-31T05:37:22;8.30;;;6.68;;
35312;SDS011;21425;50.454;30.466;2023-07-31T05:39:48;9.93;;;7.00;;
35312;SDS011;21425;50.454;30.466;2023-07-31T05:42:13;9.43;;;7.55;;
35312;SDS011;21425;50.454;30.466;2023-07-31T05:44:39;9.95;;;8.05;;
35312;SDS011;21425;50.454;30.466;2023-07-31T05:47:05;10.70;;;8.10;;
35312;SDS011;21425;50.454;30.466;2023-07-31T05:49:31;11.10;;;7.45;;
35312;SDS011;21425;50.454;30.466;2023-07-31T05:51:56;9.85;;;8.05;;
35312;SDS011;21425;50.454;30.466;2023-07-31T05:54:23;10.93;;;7.88;;
35312;SDS011;21425;50.454;30.466;2023-07-31T05:56:49;10.38;;;8.52;;
35312;SDS011;21425;50.454;30.466;2023-07-31T05:59:15;10.93;;;9.20;;
35312;SDS011;21425;50.454;30.466;2023-07-31T06:01:41;9.93;;;7.63;;
35312;SDS011;21425;50.454;30.466;2023-07-31T06:04:07;12.65;;;8.07;;
35312;SDS011;21425;50.454;30.466;2023-07-31T06:06:33;11.48;;;7.97;;
35312;SDS011;21425;50.454;30.466;2023-07-31T06:08:59;9.50;;;7.60;;
35312;SDS011;21425;50.454;30.466;2023-07-31T06:11:25;12.18;;;8.18;;
35312;SDS011;21425;50.454;30.466;2023-07-31T06:13:51;11.63;;;9.10;;
35312;SDS011;21425;50.454;30.466;2023-07-31T06:16:16;11.35;;;8.77;;
35312;SDS011;21425;50.454;30.466;2023-07-31T06:18:42;14.60;;;8.73;;
35312;SDS011;21425;50.454;30.466;2023-07-31T06:21:08;11.70;;;8.55;;
35312;SDS011;21425;50.454;30.466;2023-07-31T06:23:34;11.00;;;8.70;;
35312;SDS011;21425;50.454;30.466;2023-07-31T06:26:00;12.27;;;8.88;;
35312;SDS011;21425;50.454;30.466;2023-07-31T06:28:29;10.23;;;8.50;;
35312;SDS011;21425;50.454;30.466;2023-07-31T06:30:55;10.88;;;8.98;;
35312;SDS011;21425;50.454;30.466;2023-07-31T06:33:21;11.73;;;8.95;;
35312;SDS011;21425;50.454;30.466;2023-07-31T06:35:47;13.15;;;9.15;;
35312;SDS011;21425;50.454;30.466;2023-07-31T06:38:13;10.25;;;8.40;;
35312;SDS011;21425;50.454;30.466;2023-07-31T06:40:39;10.77;;;8.93;;
35312;SDS011;21425;50.454;30.466;2023-07-31T06:43:05;10.30;;;8.43;;
35312;SDS011;21425;50.454;30.466;2023-07-31T06:45:34;11.65;;;8.50;;
35312;SDS011;21425;50.454;30.466;2023-07-31T06:48:01;10.77;;;8.73;;
35312;SDS011;21425;50.454;30.466;2023-07-31T06:50:30;12.73;;;9.88;;
35312;SDS011;21425;50.454;30.466;2023-07-31T06:52:56;11.55;;;9.48;;
35312;SDS011;21425;50.454;30.466;2023-07-31T06:55:22;14.38;;;9.40;;
35312;SDS011;21425;50.454;30.466;2023-07-31T06:57:49;11.63;;;9.63;;
35312;SDS011;21425;50.454;30.466;2023-07-31T07:00:17;12.32;;;8.85;;
35312;SDS011;21425;50.454;30.466;2023-07-31T07:02:43;16.33;;;10.55;;
35312;SDS011;21425;50.454;30.466;2023-07-31T07:05:08;14.95;;;10.05;;
35312;SDS011;21425;50.454;30.466;2023-07-31T07:07:35;13.80;;;10.27;;
35312;SDS011;21425;50.454;30.466;2023-07-31T07:10:01;14.57;;;10.82;;
35312;SDS011;21425;50.454;30.466;2023-07-31T07:12:29;12.25;;;9.98;;
35312;SDS011;21425;50.454;30.466;2023-07-31T07:14:55;14.55;;;10.68;;
35312;SDS011;21425;50.454;30.466;2023-07-31T07:17:22;14.95;;;10.82;;
35312;SDS011;21425;50.454;30.466;2023-07-31T07:19:48;13.70;;;10.80;;
35312;SDS011;21425;50.454;30.466;2023-07-31T07:22:14;15.25;;;11.13;;
35312;SDS011;21425;50.454;30.466;2023-07-31T07:24:40;12.75;;;10.25;;
35312;SDS011;21425;50.454;30.466;2023-07-31T07:27:05;15.00;;;11.38;;
35312;SDS011;21425;50.454;30.466;2023-07-31T07:29:31;14.27;;;11.32;;
35312;SDS011;21425;50.454;30.466;2023-07-31T07:31:58;14.07;;;11.27;;
35312;SDS011;21425;50.454;30.466;2023-07-31T07:34:25;17.67;;;11.48;;
35312;SDS011;21425;50.454;30.466;2023-07-31T07:36:51;17.67;;;12.00;;
35312;SDS011;21425;50.454;30.466;2023-07-31T07:39:17;15.25;;;11.40;;
35312;SDS011;21425;50.454;30.466;2023-07-31T07:41:43;17.30;;;11.00;;
35312;SDS011;21425;50.454;30.466;2023-07-31T07:44:09;14.10;;;10.65;;
35312;SDS011;21425;50.454;30.466;2023-07-31T07:46:35;15.25;;;11.57;;
35312;SDS011;21425;50.454;30.466;2023-07-31T07:49:00;14.60;;;11.55;;
35312;SDS011;21425;50.454;30.466;2023-07-31T07:51:26;16.23;;;11.93;;
35312;SDS011;21425;50.454;30.466;2023-07-31T07:53:52;14.48;;;11.80;;
35312;SDS011;21425;50.454;30.466;2023-07-31T07:56:18;16.98;;;12.20;;
35312;SDS011;21425;50.454;30.466;2023-07-31T07:58:43;16.17;;;12.35;;
35312;SDS011;21425;50.454;30.466;2023-07-31T08:01:09;18.90;;;12.98;;
35312;SDS011;21425;50.454;30.466;2023-07-31T08:03:36;17.77;;;13.43;;
35312;SDS011;21425;50.454;30.466;2023-07-31T08:06:02;17.88;;;14.20;;
35312;SDS011;21425;50.454;30.466;2023-07-31T08:08:28;18.58;;;14.10;;
35312;SDS011;21425;50.454;30.466;2023-07-31T08:10:54;16.92;;;13.20;;
35312;SDS011;21425;50.454;30.466;2023-07-31T08:13:19;19.50;;;14.68;;
35312;SDS011;21425;50.454;30.466;2023-07-31T08:15:45;18.52;;;12.82;;
35312;SDS011;21425;50.454;30.466;2023-07-31T08:18:11;17.27;;;13.18;;
35312;SDS011;21425;50.454;30.466;2023-07-31T08:20:37;19.85;;;13.57;;
35312;SDS011;21425;50.454;30.466;2023-07-31T08:23:03;20.75;;;14.43;;
35312;SDS011;21425;50.454;30.466;2023-07-31T08:25:29;21.13;;;14.43;;
35312;SDS011;21425;50.454;30.466;2023-07-31T08:27:55;18.50;;;13.50;;
35312;SDS011;21425;50.454;30.466;2023-07-31T08:30:20;17.80;;;13.02;;
35312;SDS011;21425;50.454;30.466;2023-07-31T08:32:46;18.80;;;13.77;;
35312;SDS011;21425;50.454;30.466;2023-07-31T08:35:12;18.67;;;14.25;;
35312;SDS011;21425;50.454;30.466;2023-07-31T08:37:38;16.55;;;12.50;;
35312;SDS011;21425;50.454;30.466;2023-07-31T08:40:04;21.20;;;14.93;;
35312;SDS011;21425;50.454;30.466;2023-07-31T08:42:30;19.88;;;13.88;;
35312;SDS011;21425;50.454;30.466;2023-07-31T08:44:57;17.63;;;13.60;;
35312;SDS011;21425;50.454;30.466;2023-07-31T08:47:25;16.02;;;12.48;;
35312;SDS011;21425;50.454;30.466;2023-07-31T08:49:52;19.63;;;13.38;;
35312;SDS011;21425;50.454;30.466;2023-07-31T08:52:18;24.02;;;13.82;;
35312;SDS011;21425;50.454;30.466;2023-07-31T08:54:44;17.30;;;11.77;;
35312;SDS011;21425;50.454;30.466;2023-07-31T08:57:09;18.45;;;13.38;;
35312;SDS011;21425;50.454;30.466;2023-07-31T08:59:36;16.27;;;12.75;;
35312;SDS011;21425;50.454;30.466;2023-07-31T09:02:05;18.15;;;13.43;;
35312;SDS011;21425;50.454;30.466;2023-07-31T09:04:32;19.67;;;12.85;;
35312;SDS011;21425;50.454;30.466;2023-07-31T09:06:59;19.55;;;13.82;;
35312;SDS011;21425;50.454;30.466;2023-07-31T09:09:26;17.10;;;13.30;;
35312;SDS011;21425;50.454;30.466;2023-07-31T09:11:52;16.27;;;12.30;;
35312;SDS011;21425;50.454;30.466;2023-07-31T09:14:18;18.63;;;13.30;;
35312;SDS011;21425;50.454;30.466;2023-07-31T09:16:51;17.15;;;12.88;;
35312;SDS011;21425;50.454;30.466;2023-07-31T09:19:24;17.67;;;13.07;;
35312;SDS011;21425;50.454;30.466;2023-07-31T09:22:02;14.82;;;11.02;;
35312;SDS011;21425;50.454;30.466;2023-07-31T09:24:29;17.52;;;12.63;;
35312;SDS011;21425;50.454;30.466;2023-07-31T09:26:56;19.13;;;13.77;;
35312;SDS011;21425;50.454;30.466;2023-07-31T09:29:23;18.90;;;12.27;;
35312;SDS011;21425;50.454;30.466;2023-07-31T09:31:51;19.38;;;13.52;;
35312;SDS011;21425;50.454;30.466;2023-07-31T09:34:17;18.80;;;12.77;;
35312;SDS011;21425;50.454;30.466;2023-07-31T09:36:44;16.73;;;12.52;;
35312;SDS011;21425;50.454;30.466;2023-07-31T09:39:10;16.55;;;12.98;;
35312;SDS011;21425;50.454;30.466;2023-07-31T09:41:40;16.98;;;11.18;;
35312;SDS011;21425;50.454;30.466;2023-07-31T09:44:08;20.05;;;13.20;;
35312;SDS011;21425;50.454;30.466;2023-07-31T09:46:37;16.45;;;12.38;;
35312;SDS011;21425;50.454;30.466;2023-07-31T09:49:09;18.77;;;12.43;;
35312;SDS011;21425;50.454;30.466;2023-07-31T09:51:41;16.08;;;12.10;;
35312;SDS011;21425;50.454;30.466;2023-07-31T09:54:11;17.90;;;11.77;;
35312;SDS011;21425;50.454;30.466;2023-07-31T09:56:44;16.00;;;11.60;;
35312;SDS011;21425;50.454;30.466;2023-07-31T10:01:38;14.55;;;11.52;;
35312;SDS011;21425;50.454;30.466;2023-07-31T10:04:05;15.32;;;11.40;;
35312;SDS011;21425;50.454;30.466;2023-07-31T10:06:33;15.93;;;12.02;;
35312;SDS011;21425;50.454;30.466;2023-07-31T10:09:00;21.83;;;12.20;;
35312;SDS011;21425;50.454;30.466;2023-07-31T10:11:26;17.58;;;11.70;;
35312;SDS011;21425;50.454;30.466;2023-07-31T10:13:53;14.07;;;11.05;;
35312;SDS011;21425;50.454;30.466;2023-07-31T10:16:20;16.42;;;11.45;;
35312;SDS011;21425;50.454;30.466;2023-07-31T10:18:47;14.52;;;11.48;;
35312;SDS011;21425;50.454;30.466;2023-07-31T10:21:14;16.05;;;11.82;;
35312;SDS011;21425;50.454;30.466;2023-07-31T10:23:40;18.10;;;11.15;;
35312;SDS011;21425;50.454;30.466;2023-07-31T10:26:07;17.98;;;11.88;;
35312;SDS011;21425;50.454;30.466;2023-07-31T10:28:33;12.75;;;10.10;;
35312;SDS011;21425;50.454;30.466;2023-07-31T10:31:01;11.85;;;9.32;;
35312;SDS011;21425;50.454;30.466;2023-07-31T10:33:29;13.32;;;9.98;;
35312;SDS011;21425;50.454;30.466;2023-07-31T10:36:18;13.15;;;9.20;;
35312;SDS011;21425;50.454;30.466;2023-07-31T10:38:45;16.35;;;10.27;;
35312;SDS011;21425;50.454;30.466;2023-07-31T10:41:15;14.80;;;9.73;;
35312;SDS011;21425;50.454;30.466;2023-07-31T10:43:41;11.93;;;8.93;;
35312;SDS011;21425;50.454;30.466;2023-07-31T10:46:07;12.70;;;9.23;;
35312;SDS011;21425;50.454;30.466;2023-07-31T10:48:38;13.32;;;9.63;;
35312;SDS011;21425;50.454;30.466;2023-07-31T10:51:09;12.98;;;8.65;;
35312;SDS011;21425;50.454;30.466;2023-07-31T10:53:36;12.63;;;8.93;;
35312;SDS011;21425;50.454;30.466;2023-07-31T10:56:03;13.07;;;9.95;;
35312;SDS011;21425;50.454;30.466;2023-07-31T10:58:30;12.38;;;9.30;;
35312;SDS011;21425;50.454;30.466;2023-07-31T11:01:01;11.88;;;9.00;;
35312;SDS011;21425;50.454;30.466;2023-07-31T11:03:48;12.40;;;9.52;;
35312;SDS011;21425;50.454;30.466;2023-07-31T11:06:17;11.85;;;9.07;;
35312;SDS011;21425;50.454;30.466;2023-07-31T11:08:47;11.93;;;9.02;;
35312;SDS011;21425;50.454;30.466;2023-07-31T11:11:14;13.75;;;9.60;;
35312;SDS011;21425;50.454;30.466;2023-07-31T11:13:51;11.07;;;8.95;;
35312;SDS011;21425;50.454;30.466;2023-07-31T11:16:19;12.13;;;8.90;;
35312;SDS011;21425;50.454;30.466;2023-07-31T11:18:46;13.20;;;8.48;;
35312;SDS011;21425;50.454;30.466;2023-07-31T11:21:18;11.95;;;8.18;;
35312;SDS011;21425;50.454;30.466;2023-07-31T11:23:48;12.73;;;8.68;;
35312;SDS011;21425;50.454;30.466;2023-07-31T11:26:23;12.18;;;8.90;;
35312;SDS011;21425;50.454;30.466;2023-07-31T11:28:49;12.52;;;9.80;;
35312;SDS011;21425;50.454;30.466;2023-07-31T11:31:16;12.50;;;10.13;;
35312;SDS011;21425;50.454;30.466;2023-07-31T11:33:43;16.13;;;9.73;;
35312;SDS011;21425;50.454;30.466;2023-07-31T11:36:19;10.82;;;8.93;;
35312;SDS011;21425;50.454;30.466;2023-07-31T11:38:45;13.90;;;9.60;;
35312;SDS011;21425;50.454;30.466;2023-07-31T11:41:13;13.80;;;9.70;;
35312;SDS011;21425;50.454;30.466;2023-07-31T11:43:40;11.25;;;8.90;;
35312;SDS011;21425;50.454;30.466;2023-07-31T11:46:06;12.55;;;8.88;;
35312;SDS011;21425;50.454;30.466;2023-07-31T11:48:36;12.80;;;9.20;;
35312;SDS011;21425;50.454;30.466;2023-07-31T11:51:08;11.40;;;8.85;;
35312;SDS011;21425;50.454;30.466;2023-07-31T11:56:10;12.93;;;9.38;;
35312;SDS011;21425;50.454;30.466;2023-07-31T11:58:38;12.27;;;9.20;;
35312;SDS011;21425;50.454;30.466;2023-07-31T12:01:05;13.93;;;9.27;;
35312;SDS011;21425;50.454;30.466;2023-07-31T12:03:31;13.00;;;9.23;;
35312;SDS011;21425;50.454;30.466;2023-07-31T12:05:58;13.02;;;9.50;;
35312;SDS011;21425;50.454;30.466;2023-07-31T12:08:24;16.80;;;9.27;;
35312;SDS011;21425;50.454;30.466;2023-07-31T12:10:50;14.32;;;8.80;;
35312;SDS011;21425;50.454;30.466;2023-07-31T12:13:20;15.25;;;9.13;;
35312;SDS011;21425;50.454;30.466;2023-07-31T12:15:47;15.38;;;10.05;;
35312;SDS011;21425;50.454;30.466;2023-07-31T12:18:14;14.32;;;8.70;;
35312;SDS011;21425;50.454;30.466;2023-07-31T12:20:45;12.63;;;9.23;;
35312;SDS011;21425;50.454;30.466;2023-07-31T12:23:18;18.48;;;10.95;;
35312;SDS011;21425;50.454;30.466;2023-07-31T12:25:59;15.18;;;10.15;;
35312;SDS011;21425;50.454;30.466;2023-07-31T12:28:25;13.98;;;9.32;;
35312;SDS011;21425;50.454;30.466;2023-07-31T12:30:51;17.98;;;10.20;;
35312;SDS011;21425;50.454;30.466;2023-07-31T12:33:22;12.82;;;8.45;;
35312;SDS011;21425;50.454;30.466;2023-07-31T12:35:47;10.15;;;7.82;;
35312;SDS011;21425;50.454;30.466;2023-07-31T12:38:13;13.93;;;8.60;;
35312;SDS011;21425;50.454;30.466;2023-07-31T12:40:40;19.70;;;10.77;;
35312;SDS011;21425;50.454;30.466;2023-07-31T12:43:06;18.42;;;10.98;;
35312;SDS011;21425;50.454;30.466;2023-07-31T12:45:33;11.13;;;5.22;;
35312;SDS011;21425;50.454;30.466;2023-07-31T12:47:59;7.45;;;4.32;;
35312;SDS011;21425;50.454;30.466;2023-07-31T12:50:25;6.60;;;4.05;;
35312;SDS011;21425;50.454;30.466;2023-07-31T12:52:53;5.80;;;4.07;;
35312;SDS011;21425;50.454;30.466;2023-07-31T12:55:19;7.68;;;4.32;;
35312;SDS011;21425;50.454;30.466;2023-07-31T12:57:46;7.35;;;4.72;;
35312;SDS011;21425;50.454;30.466;2023-07-31T13:00:12;6.28;;;3.58;;
35312;SDS011;21425;50.454;30.466;2023-07-31T13:02:38;7.88;;;4.80;;
35312;SDS011;21425;50.454;30.466;2023-07-31T13:05:04;9.40;;;5.68;;
35312;SDS011;21425;50.454;30.466;2023-07-31T13:07:29;10.18;;;5.15;;
35312;SDS011;21425;50.454;30.466;2023-07-31T13:09:55;8.20;;;5.72;;
35312;SDS011;21425;50.454;30.466;2023-07-31T13:12:21;13.93;;;8.32;;
35312;SDS011;21425;50.454;30.466;2023-07-31T13:14:47;33.40;;;9.32;;
35312;SDS011;21425;50.454;30.466;2023-07-31T13:17:13;22.67;;;8.18;;
35312;SDS011;21425;50.454;30.466;2023-07-31T13:19:39;18.20;;;8.82;;
35312;SDS011;21425;50.454;30.466;2023-07-31T13:22:05;16.70;;;9.38;;
35312;SDS011;21425;50.454;30.466;2023-07-31T13:24:31;14.07;;;8.35;;
35312;SDS011;21425;50.454;30.466;2023-07-31T13:26:57;16.92;;;9.65;;
35312;SDS011;21425;50.454;30.466;2023-07-31T13:29:23;14.00;;;9.40;;
35312;SDS011;21425;50.454;30.466;2023-07-31T13:31:49;19.77;;;10.45;;
35312;SDS011;21425;50.454;30.466;2023-07-31T13:34:16;16.23;;;9.70;;
35312;SDS011;21425;50.454;30.466;2023-07-31T13:36:42;18.45;;;10.70;;
35312;SDS011;21425;50.454;30.466;2023-07-31T13:39:08;21.23;;;10.77;;
35312;SDS011;21425;50.454;30.466;2023-07-31T13:41:34;15.05;;;10.35;;
35312;SDS011;21425;50.454;30.466;2023-07-31T13:44:02;14.75;;;9.95;;
35312;SDS011;21425;50.454;30.466;2023-07-31T13:46:28;14.27;;;10.45;;
35312;SDS011;21425;50.454;30.466;2023-07-31T13:48:54;19.05;;;11.05;;
35312;SDS011;21425;50.454;30.466;2023-07-31T13:51:21;18.33;;;10.93;;
35312;SDS011;21425;50.454;30.466;2023-07-31T13:53:47;14.80;;;9.75;;
35312;SDS011;21425;50.454;30.466;2023-07-31T13:56:13;14.50;;;9.75;;
35312;SDS011;21425;50.454;30.466;2023-07-31T13:58:39;14.02;;;10.18;;
35312;SDS011;21425;50.454;30.466;2023-07-31T14:01:04;15.70;;;10.30;;
35312;SDS011;21425;50.454;30.466;2023-07-31T14:03:31;20.63;;;10.95;;
35312;SDS011;21425;50.454;30.466;2023-07-31T14:05:57;20.08;;;12.75;;
35312;SDS011;21425;50.454;30.466;2023-07-31T14:08:22;22.90;;;13.20;;
35312;SDS011;21425;50.454;30.466;2023-07-31T14:10:48;20.20;;;11.57;;
35312;SDS011;21425;50.454;30.466;2023-07-31T14:13:14;19.13;;;11.93;;
35312;SDS011;21425;50.454;30.466;2023-07-31T14:15:41;19.95;;;11.60;;
35312;SDS011;21425;50.454;30.466;2023-07-31T14:18:10;17.35;;;10.55;;
35312;SDS011;21425;50.454;30.466;2023-07-31T14:20:36;13.73;;;9.27;;
35312;SDS011;21425;50.454;30.466;2023-07-31T14:23:02;14.18;;;10.60;;
35312;SDS011;21425;50.454;30.466;2023-07-31T14:25:28;16.30;;;10.57;;
35312;SDS011;21425;50.454;30.466;2023-07-31T14:27:54;15.18;;;10.02;;
35312;SDS011;21425;50.454;30.466;2023-07-31T14:30:19;15.93;;;9.40;;